Time;durP1;ratioP1;P1;durP2;ratioP2;P2;SDS_P1;SDS_P2;PMS_P1;PMS_P2;Temp;Humidity;BMP_temperature;BMP_pressure;BME280_temperature;BME280_humidity;BME280_pressure;Samples;Min_cycle;Max_cycle;Signal;HPM_P1;HPM_P2
2023/04/20 00:00:09;;;;;;;0.10;0.10;;;8.90;99.90;;;;;;5061716;28;20956;-87
2023/04/20 00:02:38;;;;;;;0.10;0.10;;;8.80;99.90;;;;;;5071828;28;20264;-87
2023/04/20 00:05:07;;;;;;;0.00;0.00;;;8.70;99.90;;;;;;5070093;28;20768;-87
2023/04/20 00:07:34;;;;;;;0.10;0.10;;;8.70;99.90;;;;;;5068320;28;20527;-87
2023/04/20 00:10:00;;;;;;;0.10;0.10;;;8.60;99.80;;;;;;5071897;28;20440;-86
2023/04/20 00:12:26;;;;;;;0.10;0.10;;;8.50;99.70;;;;;;5068110;28;20440;-86
2023/04/20 00:14:52;;;;;;;0.10;0.10;;;8.50;99.60;;;;;;5064496;28;20825;-87
2023/04/20 00:17:17;;;;;;;0.10;0.10;;;8.50;99.50;;;;;;5066759;28;20240;-86
2023/04/20 00:19:43;;;;;;;0.10;0.10;;;8.60;99.90;;;;;;5071784;28;20468;-86
2023/04/20 00:22:09;;;;;;;0.10;0.10;;;8.70;99.90;;;;;;5062671;28;20183;-87
2023/04/20 00:24:34;;;;;;;0.10;0.10;;;8.50;99.50;;;;;;5065295;28;20198;-87
2023/04/20 00:27:00;;;;;;;0.10;0.10;;;8.60;99.60;;;;;;5068925;28;20209;-87
2023/04/20 00:29:25;;;;;;;0.10;0.10;;;8.50;99.90;;;;;;5067783;28;20194;-86
2023/04/20 00:31:51;;;;;;;0.10;0.10;;;8.50;99.90;;;;;;5061919;28;20224;-86
2023/04/20 00:34:16;;;;;;;0.10;0.10;;;8.50;99.90;;;;;;5069489;28;20214;-84
2023/04/20 00:36:42;;;;;;;0.10;0.10;;;8.60;99.90;;;;;;5061310;28;20194;-87
2023/04/20 00:39:08;;;;;;;0.10;0.10;;;8.60;99.90;;;;;;5070831;28;20251;-88
2023/04/20 00:41:34;;;;;;;0.10;0.10;;;8.70;99.90;;;;;;5067941;28;20202;-87
2023/04/20 00:43:59;;;;;;;0.10;0.10;;;8.70;99.90;;;;;;5068128;28;20447;-86
2023/04/20 00:46:25;;;;;;;0.13;0.13;;;8.60;99.90;;;;;;5066858;28;20546;-87
2023/04/20 00:48:52;;;;;;;0.10;0.10;;;8.70;99.90;;;;;;5066745;28;20190;-87
2023/04/20 00:51:20;;;;;;;0.13;0.13;;;8.70;99.90;;;;;;5067902;28;20217;-86
2023/04/20 00:53:45;;;;;;;0.10;0.10;;;8.70;99.90;;;;;;5061770;28;20564;-87
2023/04/20 00:56:13;;;;;;;0.10;0.10;;;8.70;99.90;;;;;;5066830;28;20896;-89
2023/04/20 00:58:38;;;;;;;0.10;0.10;;;8.70;99.90;;;;;;5067760;28;20255;-87
2023/04/20 01:01:04;;;;;;;0.03;0.03;;;8.60;99.90;;;;;;5065265;28;20475;-87
2023/04/20 01:03:30;;;;;;;0.10;0.10;;;8.60;99.90;;;;;;5066882;28;20190;-87
2023/04/20 01:05:56;;;;;;;0.10;0.10;;;8.50;99.90;;;;;;5065796;28;20440;-86
2023/04/20 01:08:26;;;;;;;0.10;0.10;;;8.50;99.90;;;;;;5066203;28;20232;-87
2023/04/20 01:10:52;;;;;;;0.10;0.10;;;8.50;99.90;;;;;;5067259;28;20472;-87
2023/04/20 01:13:17;;;;;;;0.10;0.10;;;8.50;99.90;;;;;;5066017;28;20432;-87
2023/04/20 01:15:43;;;;;;;0.10;0.10;;;8.50;99.90;;;;;;5070499;28;20589;-87
2023/04/20 01:18:08;;;;;;;0.10;0.10;;;8.40;99.90;;;;;;5069532;28;20193;-87
2023/04/20 01:20:34;;;;;;;0.17;0.17;;;8.40;99.90;;;;;;5065850;28;20178;-87
2023/04/20 01:22:59;;;;;;;0.10;0.10;;;8.30;99.90;;;;;;5055777;28;20604;-87
2023/04/20 01:25:25;;;;;;;0.10;0.10;;;8.20;99.90;;;;;;5062066;28;20192;-87
2023/04/20 01:27:50;;;;;;;0.20;0.20;;;8.20;99.90;;;;;;5069434;28;20681;-88
2023/04/20 01:30:16;;;;;;;0.10;0.10;;;8.20;99.90;;;;;;5065887;28;20658;-88
2023/04/20 01:32:42;;;;;;;0.10;0.10;;;8.20;99.90;;;;;;5065199;28;20221;-87
2023/04/20 01:35:09;;;;;;;0.10;0.10;;;8.10;99.90;;;;;;5066568;28;20197;-87
2023/04/20 01:37:35;;;;;;;0.10;0.10;;;8.10;99.90;;;;;;5065605;28;21040;-86
2023/04/20 01:40:01;;;;;;;0.10;0.10;;;8.10;99.70;;;;;;5061186;28;20444;-86
2023/04/20 01:42:26;;;;;;;0.10;0.10;;;8.10;99.90;;;;;;5065409;28;20444;-86
2023/04/20 01:44:52;;;;;;;0.10;0.10;;;8.00;99.30;;;;;;5055146;28;20480;-88
2023/04/20 01:47:17;;;;;;;0.20;0.20;;;8.00;99.80;;;;;;5051202;28;20186;-87
2023/04/20 01:49:43;;;;;;;0.20;0.20;;;8.00;99.90;;;;;;5069042;28;20226;-86
2023/04/20 01:52:09;;;;;;;0.10;0.10;;;8.00;99.90;;;;;;5065525;28;20222;-86
2023/04/20 01:54:36;;;;;;;0.10;0.10;;;7.90;99.90;;;;;;5065582;28;20272;-86
2023/04/20 01:57:01;;;;;;;0.10;0.10;;;7.90;99.90;;;;;;5056176;28;20187;-87
2023/04/20 01:59:27;;;;;;;0.10;0.10;;;7.80;99.90;;;;;;5063626;28;20800;-85
2023/04/20 02:01:53;;;;;;;0.10;0.10;;;7.80;99.90;;;;;;5065601;28;20642;-87
2023/04/20 02:04:19;;;;;;;0.10;0.10;;;7.90;99.80;;;;;;5067684;28;20194;-86
2023/04/20 02:06:45;;;;;;;0.20;0.20;;;7.80;99.90;;;;;;5067434;28;20182;-87
2023/04/20 02:09:10;;;;;;;0.20;0.20;;;7.80;99.40;;;;;;5069919;28;20843;-87
2023/04/20 02:11:36;;;;;;;0.10;0.10;;;7.90;99.50;;;;;;5056076;28;20214;-88
2023/04/20 02:14:02;;;;;;;0.17;0.17;;;7.90;99.90;;;;;;5063321;28;20674;-87
2023/04/20 02:16:29;;;;;;;0.10;0.10;;;7.90;99.90;;;;;;5064739;28;20189;-85
2023/04/20 02:18:55;;;;;;;0.10;0.10;;;7.80;99.90;;;;;;5067923;28;21046;-87
2023/04/20 02:21:21;;;;;;;0.10;0.10;;;7.80;99.90;;;;;;5062372;28;20516;-86
2023/04/20 02:23:46;;;;;;;0.10;0.10;;;7.80;99.90;;;;;;5063649;28;20464;-87
2023/04/20 02:26:12;;;;;;;0.10;0.10;;;7.80;99.90;;;;;;5067876;28;20479;-87
2023/04/20 02:28:38;;;;;;;0.10;0.10;;;7.70;99.90;;;;;;5055357;28;20181;-85
2023/04/20 02:31:03;;;;;;;0.10;0.10;;;7.70;99.90;;;;;;5066136;28;20698;-86
2023/04/20 02:33:29;;;;;;;0.10;0.10;;;7.60;99.90;;;;;;5066817;28;20182;-86
2023/04/20 02:35:54;;;;;;;0.10;0.10;;;7.60;99.90;;;;;;5066467;28;20654;-87
2023/04/20 02:38:20;;;;;;;0.10;0.10;;;7.50;99.90;;;;;;5066990;28;20668;-87
2023/04/20 02:40:45;;;;;;;0.20;0.20;;;7.60;99.90;;;;;;5063004;28;20182;-85
2023/04/20 02:43:11;;;;;;;0.10;0.10;;;7.60;99.90;;;;;;5060702;28;20190;-86
2023/04/20 02:45:37;;;;;;;0.10;0.10;;;7.60;99.90;;;;;;5062742;28;20186;-86
2023/04/20 02:48:02;;;;;;;0.13;0.13;;;7.50;99.90;;;;;;5066913;28;20189;-86
2023/04/20 02:50:29;;;;;;;0.20;0.20;;;7.40;99.90;;;;;;5062096;28;20217;-86
2023/04/20 02:52:54;;;;;;;0.13;0.13;;;7.40;99.90;;;;;;5061843;28;20324;-86
2023/04/20 02:55:20;;;;;;;0.20;0.20;;;7.40;99.90;;;;;;5066274;28;20543;-87
2023/04/20 02:57:45;;;;;;;0.20;0.20;;;7.40;99.90;;;;;;5055496;28;20220;-86
2023/04/20 03:00:12;;;;;;;0.10;0.10;;;7.40;99.90;;;;;;5063773;28;20339;-86
2023/04/20 03:02:38;;;;;;;0.20;0.20;;;7.30;99.90;;;;;;5052568;28;20186;-85
2023/04/20 03:05:04;;;;;;;0.10;0.10;;;7.30;99.90;;;;;;5068220;28;20444;-86
2023/04/20 03:07:30;;;;;;;0.20;0.20;;;7.40;99.90;;;;;;5066632;28;20760;-86
2023/04/20 03:09:56;;;;;;;0.13;0.13;;;7.30;99.90;;;;;;5066041;28;20182;-87
2023/04/20 03:12:21;;;;;;;0.20;0.20;;;7.30;99.90;;;;;;5065421;28;20483;-86
2023/04/20 03:14:47;;;;;;;0.20;0.20;;;7.30;99.90;;;;;;5062106;28;20185;-86
2023/04/20 03:17:13;;;;;;;0.20;0.20;;;7.20;99.90;;;;;;5064096;28;20661;-86
2023/04/20 03:19:38;;;;;;;0.20;0.20;;;7.20;99.90;;;;;;5067281;28;20189;-85
2023/04/20 03:22:04;;;;;;;0.20;0.20;;;7.20;99.90;;;;;;5064319;28;20182;-86
2023/04/20 03:24:29;;;;;;;0.10;0.10;;;7.10;99.90;;;;;;5049841;28;20211;-86
2023/04/20 03:26:55;;;;;;;0.20;0.20;;;7.20;99.90;;;;;;5066035;28;20181;-85
2023/04/20 03:29:20;;;;;;;0.20;0.20;;;7.20;99.90;;;;;;5068564;28;20190;-85
2023/04/20 03:31:46;;;;;;;0.20;0.20;;;7.20;99.90;;;;;;5056850;28;20304;-86
2023/04/20 03:34:11;;;;;;;0.10;0.10;;;7.20;99.90;;;;;;5065677;28;20183;-86
2023/04/20 03:36:37;;;;;;;0.20;0.20;;;7.20;99.90;;;;;;5065126;28;20193;-86
2023/04/20 03:39:03;;;;;;;0.20;0.20;;;7.20;99.90;;;;;;5066700;28;20182;-86
2023/04/20 03:41:30;;;;;;;0.10;0.10;;;7.30;99.90;;;;;;5067266;28;20439;-86
2023/04/20 03:43:55;;;;;;;0.10;0.10;;;7.30;99.90;;;;;;5053927;28;20551;-86
2023/04/20 03:46:21;;;;;;;0.10;0.10;;;7.30;99.90;;;;;;5066912;28;20452;-86
2023/04/20 03:48:46;;;;;;;0.10;0.10;;;7.30;99.90;;;;;;5064625;28;20186;-86
2023/04/20 03:51:12;;;;;;;0.20;0.20;;;7.30;99.90;;;;;;5063945;28;20213;-85
2023/04/20 03:53:37;;;;;;;0.10;0.10;;;7.30;99.90;;;;;;5067362;28;20717;-86
2023/04/20 03:56:03;;;;;;;0.20;0.20;;;7.30;99.90;;;;;;5063969;28;20186;-86
2023/04/20 03:58:29;;;;;;;0.20;0.20;;;7.40;99.90;;;;;;5065730;28;20186;-86
2023/04/20 04:01:06;;;;;;;0.20;0.20;;;7.40;99.90;;;;;;5065797;28;20186;-87
2023/04/20 04:03:33;;;;;;;0.20;0.20;;;7.40;99.90;;;;;;5065999;28;20455;-86
2023/04/20 04:05:58;;;;;;;0.20;0.20;;;7.40;99.90;;;;;;5061837;28;20487;-86
2023/04/20 04:08:24;;;;;;;0.17;0.17;;;7.30;99.90;;;;;;5066412;28;20510;-88
2023/04/20 04:10:50;;;;;;;0.20;0.20;;;7.30;99.90;;;;;;5060562;28;20306;-85
2023/04/20 04:13:15;;;;;;;0.20;0.20;;;7.40;99.90;;;;;;5065609;28;20455;-86
2023/04/20 04:15:41;;;;;;;0.20;0.20;;;7.40;99.90;;;;;;5062799;28;20190;-86
2023/04/20 04:18:07;;;;;;;0.20;0.20;;;7.50;99.90;;;;;;5069105;28;20235;-86
2023/04/20 04:20:32;;;;;;;0.10;0.10;;;7.50;99.90;;;;;;5065448;28;20221;-87
2023/04/20 04:22:58;;;;;;;0.20;0.20;;;7.40;99.90;;;;;;5066385;28;20197;-87
2023/04/20 04:25:23;;;;;;;0.10;0.10;;;7.40;99.90;;;;;;5065464;28;20592;-87
2023/04/20 04:27:49;;;;;;;0.10;0.10;;;7.50;99.90;;;;;;5059419;28;20178;-87
2023/04/20 04:30:16;;;;;;;0.20;0.20;;;7.40;99.90;;;;;;5068501;28;20186;-87
2023/04/20 04:32:43;;;;;;;0.10;0.10;;;7.50;99.90;;;;;;5063773;28;20451;-87
2023/04/20 04:35:09;;;;;;;0.10;0.10;;;7.50;99.90;;;;;;5063796;28;20436;-87
2023/04/20 04:37:34;;;;;;;0.10;0.10;;;7.50;99.90;;;;;;5056606;28;20455;-87
2023/04/20 04:40:01;;;;;;;0.10;0.10;;;7.50;99.90;;;;;;5064795;28;20186;-86
2023/04/20 04:42:27;;;;;;;0.10;0.10;;;7.50;99.90;;;;;;5064148;28;20599;-86
2023/04/20 04:44:54;;;;;;;0.10;0.10;;;7.50;99.90;;;;;;5066525;28;20447;-86
2023/04/20 04:47:21;;;;;;;0.10;0.10;;;7.50;99.90;;;;;;5063070;28;20952;-86
2023/04/20 04:49:47;;;;;;;0.20;0.20;;;7.50;99.90;;;;;;5065122;28;20450;-86
2023/04/20 04:52:13;;;;;;;0.20;0.20;;;7.60;99.90;;;;;;5066030;28;20492;-85
2023/04/20 04:54:39;;;;;;;0.10;0.10;;;7.60;99.90;;;;;;5069232;28;20222;-85
2023/04/20 04:57:04;;;;;;;0.10;0.10;;;7.60;99.90;;;;;;5066934;28;20463;-85
2023/04/20 04:59:30;;;;;;;0.10;0.10;;;7.60;99.90;;;;;;5058015;28;20331;-86
2023/04/20 05:01:56;;;;;;;0.20;0.20;;;7.50;99.90;;;;;;5060059;28;20185;-86
2023/04/20 05:04:21;;;;;;;0.20;0.20;;;7.50;99.90;;;;;;5068476;28;20248;-87
2023/04/20 05:06:47;;;;;;;0.10;0.10;;;7.50;99.90;;;;;;5085206;28;20181;-88
2023/04/20 05:09:12;;;;;;;0.20;0.20;;;7.50;99.90;;;;;;5067857;28;20442;-86
2023/04/20 05:11:38;;;;;;;0.20;0.20;;;7.50;99.90;;;;;;5066082;28;20236;-87
2023/04/20 05:14:04;;;;;;;0.10;0.10;;;7.60;99.90;;;;;;5066702;28;20665;-88
2023/04/20 05:16:29;;;;;;;0.10;0.10;;;7.70;99.90;;;;;;5062204;28;20189;-87
2023/04/20 05:18:56;;;;;;;0.10;0.10;;;7.70;99.90;;;;;;5055653;28;20266;-88
2023/04/20 05:21:21;;;;;;;0.20;0.20;;;7.70;99.90;;;;;;5060697;28;20195;-87
2023/04/20 05:23:47;;;;;;;0.20;0.20;;;7.80;99.90;;;;;;5065193;28;20433;-87
2023/04/20 05:26:12;;;;;;;0.20;0.20;;;7.80;99.90;;;;;;5068702;28;20189;-87
2023/04/20 05:28:38;;;;;;;0.10;0.10;;;7.80;99.90;;;;;;5057014;28;20662;-87
2023/04/20 05:31:03;;;;;;;0.10;0.10;;;7.80;99.90;;;;;;5064389;28;20248;-85
2023/04/20 05:33:29;;;;;;;0.10;0.10;;;7.90;99.90;;;;;;5068396;28;20220;-88
2023/04/20 05:35:56;;;;;;;0.20;0.20;;;7.80;99.90;;;;;;5063925;28;20186;-86
2023/04/20 05:38:21;;;;;;;0.13;0.13;;;7.80;99.90;;;;;;5064470;28;20193;-88
2023/04/20 05:40:47;;;;;;;0.20;0.20;;;7.80;99.90;;;;;;5063621;28;20466;-88
2023/04/20 05:43:12;;;;;;;0.10;0.10;;;7.80;99.90;;;;;;5067351;28;20192;-88
2023/04/20 05:45:38;;;;;;;0.10;0.10;;;7.80;99.90;;;;;;5059414;28;20175;-88
2023/04/20 05:48:04;;;;;;;0.10;0.10;;;7.80;99.90;;;;;;5066009;28;20243;-88
2023/04/20 05:50:30;;;;;;;0.10;0.10;;;7.90;99.90;;;;;;5067969;28;20218;-90
2023/04/20 05:52:55;;;;;;;0.10;0.10;;;7.90;99.90;;;;;;5060360;28;20602;-88
2023/04/20 05:55:21;;;;;;;0.10;0.10;;;7.90;99.90;;;;;;5070055;28;20182;-86
2023/04/20 05:57:46;;;;;;;0.10;0.10;;;7.90;99.90;;;;;;5067910;28;20729;-87
2023/04/20 06:00:14;;;;;;;0.10;0.10;;;8.00;99.90;;;;;;5067295;28;20190;-89
2023/04/20 06:02:40;;;;;;;0.10;0.10;;;8.00;99.90;;;;;;5067711;28;20731;-87
2023/04/20 06:05:09;;;;;;;0.10;0.10;;;8.10;99.90;;;;;;5068062;28;20519;-88
2023/04/20 06:07:35;;;;;;;0.10;0.10;;;8.20;99.90;;;;;;5058913;28;20856;-88
2023/04/20 06:10:01;;;;;;;0.10;0.10;;;8.30;99.90;;;;;;5069989;28;20931;-88
2023/04/20 06:12:28;;;;;;;0.10;0.10;;;8.30;99.90;;;;;;5065830;28;20484;-88
2023/04/20 06:14:55;;;;;;;0.10;0.10;;;8.40;99.90;;;;;;5056321;28;20459;-88
2023/04/20 06:17:20;;;;;;;0.10;0.10;;;8.50;99.90;;;;;;5064574;28;20436;-86
2023/04/20 06:19:46;;;;;;;0.13;0.13;;;8.40;99.90;;;;;;5059265;28;20515;-88
2023/04/20 06:22:12;;;;;;;0.20;0.20;;;8.50;99.90;;;;;;5061072;28;20231;-85
2023/04/20 06:24:38;;;;;;;0.10;0.10;;;8.60;99.90;;;;;;5060229;28;20189;-88
2023/04/20 06:27:03;;;;;;;0.10;0.10;;;8.50;99.90;;;;;;5048958;28;20452;-92
2023/04/20 06:29:29;;;;;;;0.10;0.10;;;8.50;99.90;;;;;;5067937;28;20550;-89
2023/04/20 06:31:54;;;;;;;0.10;0.10;;;8.30;99.90;;;;;;5058238;28;20226;-90
2023/04/20 06:34:20;;;;;;;0.10;0.10;;;8.30;99.90;;;;;;5067532;28;20185;-88
2023/04/20 06:36:45;;;;;;;0.10;0.10;;;8.40;99.90;;;;;;5067212;28;20280;-88
2023/04/20 06:39:11;;;;;;;0.20;0.20;;;8.40;99.90;;;;;;5066602;28;20208;-90
2023/04/20 06:41:37;;;;;;;0.10;0.10;;;8.40;99.90;;;;;;5068065;28;20182;-87
2023/04/20 06:44:03;;;;;;;0.10;0.10;;;8.40;99.90;;;;;;5064110;28;20191;-87
2023/04/20 06:46:29;;;;;;;0.10;0.10;;;8.30;99.90;;;;;;5061762;28;20440;-87
2023/04/20 06:48:55;;;;;;;0.13;0.13;;;8.40;99.90;;;;;;5058670;28;20498;-87
2023/04/20 06:51:20;;;;;;;0.10;0.10;;;8.40;99.90;;;;;;5067385;28;20271;-88
2023/04/20 06:53:46;;;;;;;0.10;0.10;;;8.50;99.90;;;;;;5060210;28;20702;-88
2023/04/20 06:56:11;;;;;;;0.10;0.10;;;8.50;99.90;;;;;;5062772;28;20569;-88
2023/04/20 06:58:37;;;;;;;0.17;0.17;;;8.30;99.90;;;;;;5062449;28;20201;-88
2023/04/20 07:01:02;;;;;;;0.10;0.10;;;8.30;99.90;;;;;;5056822;28;20240;-89
2023/04/20 07:03:28;;;;;;;0.10;0.10;;;8.40;99.90;;;;;;5065542;28;20240;-88
2023/04/20 07:05:53;;;;;;;0.17;0.17;;;8.30;99.90;;;;;;5056342;28;20297;-87
2023/04/20 07:08:19;;;;;;;0.10;0.10;;;8.40;99.90;;;;;;5069137;28;20178;-87
2023/04/20 07:10:45;;;;;;;0.10;0.10;;;8.30;99.90;;;;;;5066026;28;20300;-86
2023/04/20 07:13:10;;;;;;;0.10;0.10;;;8.40;99.90;;;;;;5054272;28;20194;-85
2023/04/20 07:15:36;;;;;;;0.20;0.20;;;8.40;99.90;;;;;;5057799;28;20170;-85
2023/04/20 07:18:01;;;;;;;0.10;0.10;;;8.50;99.90;;;;;;5065462;28;20185;-86
2023/04/20 07:20:27;;;;;;;0.10;0.10;;;8.70;99.90;;;;;;5067084;28;20646;-87
2023/04/20 07:22:53;;;;;;;0.10;0.10;;;8.80;99.90;;;;;;5064378;28;20316;-84
2023/04/20 07:25:18;;;;;;;0.10;0.10;;;8.80;99.90;;;;;;5061764;28;20192;-85
2023/04/20 07:27:44;;;;;;;0.10;0.10;;;8.80;99.90;;;;;;5067310;28;20189;-85
2023/04/20 07:30:10;;;;;;;0.10;0.10;;;8.90;99.90;;;;;;5057596;28;20595;-84
2023/04/20 07:32:37;;;;;;;0.13;0.13;;;9.00;99.90;;;;;;5065357;28;20226;-83
2023/04/20 07:35:03;;;;;;;0.17;0.17;;;9.00;99.90;;;;;;5066574;28;20472;-83
2023/04/20 07:37:29;;;;;;;0.10;0.10;;;9.00;99.90;;;;;;5064823;28;20459;-84
2023/04/20 07:39:54;;;;;;;0.10;0.10;;;9.00;99.90;;;;;;5064576;28;20444;-84
2023/04/20 07:42:22;;;;;;;0.10;0.10;;;8.80;99.90;;;;;;5068342;28;20182;-84
2023/04/20 07:44:48;;;;;;;0.10;0.10;;;8.80;99.90;;;;;;5063748;28;20228;-84
2023/04/20 07:47:14;;;;;;;0.10;0.10;;;8.90;99.90;;;;;;5066219;28;21009;-84
2023/04/20 07:49:40;;;;;;;0.10;0.10;;;8.80;99.90;;;;;;5064759;28;20197;-84
2023/04/20 07:52:06;;;;;;;0.10;0.10;;;8.80;99.90;;;;;;5063892;28;20596;-83
2023/04/20 07:54:32;;;;;;;0.17;0.17;;;8.60;99.90;;;;;;5058462;28;20995;-85
2023/04/20 07:56:58;;;;;;;0.17;0.17;;;8.60;99.90;;;;;;5064645;28;20451;-85
2023/04/20 07:59:23;;;;;;;0.10;0.10;;;8.50;99.90;;;;;;5071139;28;20189;-84
2023/04/20 08:01:49;;;;;;;0.10;0.10;;;8.40;99.90;;;;;;5068517;28;20456;-86
2023/04/20 08:04:16;;;;;;;0.17;0.17;;;8.40;99.90;;;;;;5061301;28;20235;-84
2023/04/20 08:06:41;;;;;;;0.10;0.10;;;8.40;99.90;;;;;;5058584;28;20654;-84
2023/04/20 08:09:07;;;;;;;0.10;0.10;;;8.30;99.90;;;;;;5062064;28;20536;-84
2023/04/20 08:11:32;;;;;;;0.10;0.10;;;8.30;99.90;;;;;;5067515;28;20222;-84
2023/04/20 08:13:58;;;;;;;0.10;0.10;;;8.20;99.90;;;;;;5067494;28;20182;-83
2023/04/20 08:16:24;;;;;;;0.20;0.20;;;8.30;99.90;;;;;;5062043;28;20182;-85
2023/04/20 08:18:49;;;;;;;0.20;0.20;;;8.30;99.90;;;;;;5056004;28;20187;-83
2023/04/20 08:21:15;;;;;;;0.10;0.10;;;8.20;99.90;;;;;;5060639;28;20278;-82
2023/04/20 08:23:41;;;;;;;0.10;0.10;;;8.10;99.90;;;;;;5062324;28;20193;-86
2023/04/20 08:26:07;;;;;;;0.10;0.10;;;8.10;99.90;;;;;;5049677;28;20459;-84
2023/04/20 08:28:32;;;;;;;0.20;0.20;;;8.20;99.90;;;;;;5060707;28;20186;-83
2023/04/20 08:30:58;;;;;;;0.13;0.13;;;8.20;99.90;;;;;;5049607;28;20221;-83
2023/04/20 08:33:23;;;;;;;0.17;0.17;;;8.30;99.90;;;;;;5052059;28;20198;-84
2023/04/20 08:35:50;;;;;;;0.10;0.10;;;8.30;99.90;;;;;;5056797;28;20194;-84
2023/04/20 08:38:16;;;;;;;0.10;0.10;;;8.30;99.90;;;;;;5070353;28;20652;-86
2023/04/20 08:40:42;;;;;;;0.10;0.10;;;8.20;99.90;;;;;;5066868;28;20432;-86
2023/04/20 08:43:08;;;;;;;0.10;0.10;;;8.20;99.90;;;;;;5068348;28;20688;-85
2023/04/20 08:45:34;;;;;;;0.20;0.20;;;8.10;99.90;;;;;;5061803;28;20475;-86
2023/04/20 08:48:04;;;;;;;0.13;0.13;;;8.20;99.90;;;;;;5055919;28;20658;-87
2023/04/20 08:50:30;;;;;;;0.10;0.10;;;8.20;99.90;;;;;;5067413;28;20182;-85
2023/04/20 08:52:56;;;;;;;0.20;0.20;;;8.20;99.90;;;;;;5061161;28;20455;-84
2023/04/20 08:55:23;;;;;;;0.10;0.10;;;8.20;99.90;;;;;;5068231;28;20822;-85
2023/04/20 08:57:49;;;;;;;0.20;0.20;;;8.40;99.90;;;;;;5063689;28;20546;-84
2023/04/20 09:00:15;;;;;;;0.10;0.10;;;8.40;99.90;;;;;;5068228;28;21088;-85
2023/04/20 09:02:50;;;;;;;0.10;0.10;;;8.40;99.90;;;;;;5058761;28;20933;-85
2023/04/20 09:05:27;;;;;;;0.13;0.13;;;8.30;99.90;;;;;;5056069;28;20458;-86
2023/04/20 09:07:55;;;;;;;0.10;0.10;;;8.40;99.90;;;;;;5068794;28;20452;-86
2023/04/20 09:10:22;;;;;;;0.10;0.10;;;8.30;99.90;;;;;;5063858;28;20539;-85
2023/04/20 09:12:49;;;;;;;0.10;0.10;;;8.30;99.90;;;;;;5062874;28;20497;-86
2023/04/20 09:15:28;;;;;;;0.17;0.17;;;8.30;99.90;;;;;;5058832;28;20452;-85
2023/04/20 09:17:53;;;;;;;0.17;0.17;;;8.40;99.90;;;;;;5058651;28;20463;-85
2023/04/20 09:20:33;;;;;;;0.10;0.10;;;8.30;99.90;;;;;;5059295;28;20436;-84
2023/04/20 09:23:16;;;;;;;0.10;0.10;;;8.30;99.90;;;;;;5054027;28;20257;-86
2023/04/20 09:25:45;;;;;;;0.10;0.10;;;8.40;99.90;;;;;;5064375;28;20819;-86
2023/04/20 09:28:12;;;;;;;0.10;0.10;;;8.50;99.90;;;;;;5062529;28;20439;-83
2023/04/20 09:30:45;;;;;;;0.10;0.10;;;8.60;99.90;;;;;;5061052;28;20502;-85
2023/04/20 09:33:13;;;;;;;0.10;0.10;;;8.70;99.90;;;;;;5061026;28;20527;-84
2023/04/20 09:35:40;;;;;;;0.10;0.10;;;8.90;99.90;;;;;;5068192;28;20439;-84
2023/04/20 09:38:07;;;;;;;0.20;0.20;;;8.80;99.90;;;;;;5062655;28;20871;-82
2023/04/20 09:40:33;;;;;;;0.10;0.10;;;8.90;99.90;;;;;;5066257;28;20505;-83
2023/04/20 09:43:12;;;;;;;0.10;0.10;;;9.50;99.90;;;;;;5068857;28;20803;-83
2023/04/20 09:45:38;;;;;;;0.10;0.10;;;9.90;99.90;;;;;;5059675;28;20515;-83
2023/04/20 09:48:07;;;;;;;0.10;0.10;;;10.00;99.90;;;;;;5066421;28;20532;-83
2023/04/20 09:50:36;;;;;;;0.10;0.10;;;9.80;99.90;;;;;;5055294;28;20838;-83
2023/04/20 09:53:03;;;;;;;0.10;0.10;;;9.50;99.90;;;;;;5058532;28;20495;-84
2023/04/20 09:55:32;;;;;;;0.13;0.13;;;9.40;99.90;;;;;;5066020;28;20440;-83
2023/04/20 09:58:01;;;;;;;0.10;0.10;;;9.50;99.90;;;;;;5069171;28;20451;-84
2023/04/20 10:00:27;;;;;;;0.10;0.10;;;9.60;99.90;;;;;;5059484;28;20443;-84
2023/04/20 10:02:53;;;;;;;0.10;0.10;;;9.60;99.90;;;;;;5062710;28;20995;-84
2023/04/20 10:05:19;;;;;;;0.10;0.10;;;9.60;99.90;;;;;;5062288;28;20779;-83
2023/04/20 10:07:44;;;;;;;0.10;0.10;;;9.70;99.90;;;;;;5070735;28;20436;-84
2023/04/20 10:10:15;;;;;;;0.10;0.10;;;10.00;99.90;;;;;;5069971;28;20204;-85
2023/04/20 10:12:48;;;;;;;0.10;0.10;;;10.30;99.90;;;;;;5070538;28;20218;-85
2023/04/20 10:15:13;;;;;;;0.10;0.10;;;10.70;99.90;;;;;;5059114;28;20474;-90
2023/04/20 10:17:40;;;;;;;0.03;0.03;;;11.20;99.90;;;;;;5063095;28;20449;-86
2023/04/20 10:20:18;;;;;;;0.10;0.10;;;11.40;99.90;;;;;;5065708;28;20190;-87
2023/04/20 10:22:43;;;;;;;0.03;0.03;;;11.70;99.90;;;;;;5070042;28;20535;-89
2023/04/20 10:25:22;;;;;;;0.10;0.10;;;12.00;99.90;;;;;;5068678;28;20528;-87
2023/04/20 10:27:59;;;;;;;0.00;0.00;;;12.40;99.90;;;;;;5066444;28;20184;-88
2023/04/20 10:30:27;;;;;;;0.10;0.10;;;12.20;99.90;;;;;;5065997;28;20448;-87
2023/04/20 10:33:06;;;;;;;0.00;0.00;;;12.00;99.90;;;;;;5063044;28;20456;-90
2023/04/20 10:35:53;;;;;;;0.00;0.00;;;12.80;99.90;;;;;;5056098;28;20456;-88
2023/04/20 10:38:29;;;;;;;0.00;0.00;;;13.90;99.90;;;;;;5065636;28;20479;-88
2023/04/20 10:40:55;;;;;;;0.00;0.00;;;13.70;99.90;;;;;;5061707;28;20448;-89
2023/04/20 10:43:21;;;;;;;0.00;0.00;;;13.90;99.90;;;;;;5053441;28;20503;-88
2023/04/20 10:45:47;;;;;;;0.00;0.00;;;14.20;99.90;;;;;;5063973;28;20182;-90
2023/04/20 10:48:13;;;;;;;0.00;0.00;;;14.60;99.90;;;;;;5061544;28;20528;-89
2023/04/20 10:50:38;;;;;;;0.00;0.00;;;15.00;99.90;;;;;;5069614;28;20531;-93
2023/04/20 10:53:04;;;;;;;0.00;0.00;;;15.80;99.90;;;;;;5067271;28;20226;-92
2023/04/20 10:55:30;;;;;;;0.00;0.00;;;16.40;99.90;;;;;;5063449;28;20238;-91
2023/04/20 10:57:56;;;;;;;0.00;0.00;;;17.20;99.90;;;;;;5070803;28;20193;-90
2023/04/20 11:00:25;;;;;;;0.00;0.00;;;16.60;99.90;;;;;;5067221;28;20190;-89
2023/04/20 11:02:52;;;;;;;0.00;0.00;;;15.70;99.90;;;;;;5059783;28;20255;-91
2023/04/20 11:05:18;;;;;;;0.00;0.00;;;15.90;99.90;;;;;;5055403;28;20839;-88
2023/04/20 11:07:52;;;;;;;0.00;0.00;;;16.20;99.90;;;;;;5064724;28;20776;-90
2023/04/20 11:10:18;;;;;;;0.00;0.00;;;16.90;99.90;;;;;;5067023;28;20440;-90
2023/04/20 11:12:44;;;;;;;0.00;0.00;;;17.40;99.90;;;;;;5062672;28;21027;-90
2023/04/20 11:15:10;;;;;;;0.00;0.00;;;17.50;99.90;;;;;;5062542;28;20440;-92
2023/04/20 11:17:36;;;;;;;0.00;0.00;;;17.30;99.90;;;;;;5068525;28;20190;-91
2023/04/20 11:20:14;;;;;;;0.00;0.00;;;17.10;99.90;;;;;;5070620;28;20630;-90
2023/04/20 11:22:41;;;;;;;0.00;0.00;;;16.80;99.90;;;;;;5063351;28;20874;-92
2023/04/20 11:25:09;;;;;;;0.00;0.00;;;16.70;99.90;;;;;;5065362;28;20443;-88
2023/04/20 11:27:35;;;;;;;0.00;0.00;;;16.70;99.90;;;;;;5067868;28;20513;-88
2023/04/20 11:30:04;;;;;;;0.00;0.00;;;16.60;99.90;;;;;;5059935;28;20445;-89
2023/04/20 11:32:34;;;;;;;0.00;0.00;;;16.40;99.90;;;;;;5072580;28;20488;-90
2023/04/20 11:35:09;;;;;;;0.00;0.00;;;16.70;99.90;;;;;;5064038;28;20858;-88
2023/04/20 11:37:46;;;;;;;0.00;0.00;;;16.80;99.90;;;;;;5066385;28;20951;-91
2023/04/20 11:40:12;;;;;;;0.00;0.00;;;17.10;99.90;;;;;;5072881;28;20439;-90
2023/04/20 11:42:38;;;;;;;0.00;0.00;;;17.50;99.90;;;;;;5056708;28;20456;-90
2023/04/20 11:45:05;;;;;;;0.00;0.00;;;18.00;99.90;;;;;;5073772;28;20235;-92
2023/04/20 11:47:31;;;;;;;0.00;0.00;;;18.60;99.90;;;;;;5064144;28;20189;-91
2023/04/20 11:49:56;;;;;;;0.00;0.00;;;17.60;99.90;;;;;;5066538;28;20443;-91
2023/04/20 11:52:22;;;;;;;0.00;0.00;;;18.00;99.90;;;;;;5067144;28;20241;-91
2023/04/20 11:54:48;;;;;;;0.00;0.00;;;18.40;99.90;;;;;;5071588;28;20319;-92
2023/04/20 11:57:13;;;;;;;0.00;0.00;;;18.50;99.90;;;;;;5069469;28;20331;-93
2023/04/20 11:59:41;;;;;;;0.00;0.00;;;18.40;99.90;;;;;;5071761;28;20535;-90
2023/04/20 12:02:07;;;;;;;0.00;0.00;;;18.40;99.90;;;;;;5067273;28;20691;-90
2023/04/20 12:04:33;;;;;;;0.00;0.00;;;18.40;99.90;;;;;;5070374;28;20558;-91
2023/04/20 12:06:59;;;;;;;0.00;0.00;;;19.00;99.90;;;;;;5072466;28;20649;-92
2023/04/20 12:09:25;;;;;;;0.00;0.00;;;19.10;99.90;;;;;;5069321;28;20895;-91
2023/04/20 12:11:51;;;;;;;0.00;0.00;;;19.00;99.90;;;;;;5069445;28;20206;-91
2023/04/20 12:14:16;;;;;;;0.00;0.00;;;18.90;99.90;;;;;;5071303;28;20504;-91
2023/04/20 12:16:42;;;;;;;0.00;0.00;;;18.70;99.60;;;;;;5066142;28;20650;-90
2023/04/20 12:19:08;;;;;;;0.00;0.00;;;18.60;99.90;;;;;;5073021;28;20186;-90
2023/04/20 12:21:34;;;;;;;0.00;0.00;;;18.80;99.90;;;;;;5069286;28;20331;-89
2023/04/20 12:23:59;;;;;;;0.00;0.00;;;19.00;99.30;;;;;;5066912;28;20183;-89
2023/04/20 12:26:25;;;;;;;0.00;0.00;;;19.10;99.90;;;;;;5059362;28;21022;-89
2023/04/20 12:28:51;;;;;;;0.00;0.00;;;19.10;99.40;;;;;;5062912;28;20190;-90
2023/04/20 12:31:16;;;;;;;0.00;0.00;;;19.40;98.40;;;;;;5065868;28;20563;-90
2023/04/20 12:33:43;;;;;;;0.00;0.00;;;20.00;98.80;;;;;;5073018;28;20185;-95
2023/04/20 12:36:09;;;;;;;0.00;0.00;;;19.00;97.90;;;;;;5073214;28;20182;-91
2023/04/20 12:38:35;;;;;;;0.00;0.00;;;18.70;98.70;;;;;;5070715;28;20447;-91
2023/04/20 12:41:00;;;;;;;0.00;0.00;;;18.80;99.30;;;;;;5072318;28;20182;-90
2023/04/20 12:43:27;;;;;;;0.00;0.00;;;19.20;99.20;;;;;;5068132;28;20443;-91
2023/04/20 12:45:52;;;;;;;0.00;0.00;;;19.50;99.00;;;;;;5066944;28;20186;-92
2023/04/20 12:48:18;;;;;;;0.00;0.00;;;18.50;98.40;;;;;;5072469;28;20446;-91
2023/04/20 12:50:44;;;;;;;0.00;0.00;;;17.60;98.50;;;;;;5063783;28;20646;-90